sensor_id;sensor_type;location;lat;lon;timestamp;pressure;altitude;pressure_sealevel;temperature;humidity
46886;BME280;32622;48.202;11.326;2022-08-19T00:01:53;1011.95;;;19.99;32.15
46886;BME280;32622;48.202;11.326;2022-08-19T00:04:04;1012.03;;;20.05;32.12
46886;BME280;32622;48.202;11.326;2022-08-19T00:06:09;1012.17;;;19.51;32.96
46886;BME280;32622;48.202;11.326;2022-08-19T00:08:13;1012.12;;;19.84;32.73
46886;BME280;32622;48.202;11.326;2022-08-19T00:10:18;1012.00;;;20.06;32.60
46886;BME280;32622;48.202;11.326;2022-08-19T00:12:23;1011.95;;;19.96;32.14
46886;BME280;32622;48.202;11.326;2022-08-19T00:14:28;1011.91;;;19.90;31.75
46886;BME280;32622;48.202;11.326;2022-08-19T00:16:33;1011.88;;;20.28;31.47
46886;BME280;32622;48.202;11.326;2022-08-19T00:18:38;1011.95;;;20.29;32.02
46886;BME280;32622;48.202;11.326;2022-08-19T00:20:41;1011.94;;;20.27;31.48
46886;BME280;32622;48.202;11.326;2022-08-19T00:22:46;1011.84;;;20.46;31.21
46886;BME280;32622;48.202;11.326;2022-08-19T00:24:50;1011.80;;;20.38;31.25
46886;BME280;32622;48.202;11.326;2022-08-19T00:26:55;1011.72;;;20.55;31.10
46886;BME280;32622;48.202;11.326;2022-08-19T00:28:59;1011.82;;;20.37;31.28
46886;BME280;32622;48.202;11.326;2022-08-19T00:31:07;1011.86;;;20.31;31.36
46886;BME280;32622;48.202;11.326;2022-08-19T00:33:12;1011.65;;;20.76;30.93
46886;BME280;32622;48.202;11.326;2022-08-19T00:35:17;1011.80;;;19.75;31.04
46886;BME280;32622;48.202;11.326;2022-08-19T00:37:20;1011.55;;;20.71;31.27
46886;BME280;32622;48.202;11.326;2022-08-19T00:39:25;1011.65;;;20.12;31.44
46886;BME280;32622;48.202;11.326;2022-08-19T00:41:29;1011.42;;;20.87;31.04
46886;BME280;32622;48.202;11.326;2022-08-19T00:43:34;1011.56;;;19.95;31.86
46886;BME280;32622;48.202;11.326;2022-08-19T00:45:39;1011.77;;;18.76;32.90
46886;BME280;32622;48.202;11.326;2022-08-19T00:47:44;1011.72;;;19.34;32.71
46886;BME280;32622;48.202;11.326;2022-08-19T00:49:51;1011.55;;;20.30;31.68
46886;BME280;32622;48.202;11.326;2022-08-19T00:52:00;1011.64;;;20.23;31.53
46886;BME280;32622;48.202;11.326;2022-08-19T00:54:05;1011.58;;;20.22;32.04
46886;BME280;32622;48.202;11.326;2022-08-19T00:56:10;1011.25;;;20.94;31.34
46886;BME280;32622;48.202;11.326;2022-08-19T00:58:18;1011.20;;;20.77;31.06
46886;BME280;32622;48.202;11.326;2022-08-19T01:00:24;1011.50;;;19.78;32.44
46886;BME280;32622;48.202;11.326;2022-08-19T01:02:30;1011.41;;;20.50;31.53
46886;BME280;32622;48.202;11.326;2022-08-19T01:04:34;1011.48;;;20.56;31.45
46886;BME280;32622;48.202;11.326;2022-08-19T01:06:41;1011.63;;;20.10;31.13
46886;BME280;32622;48.202;11.326;2022-08-19T01:08:45;1011.76;;;19.60;32.16
46886;BME280;32622;48.202;11.326;2022-08-19T01:10:52;1011.65;;;20.14;31.87
46886;BME280;32622;48.202;11.326;2022-08-19T01:12:58;1011.56;;;20.41;31.35
46886;BME280;32622;48.202;11.326;2022-08-19T01:15:07;1011.56;;;20.24;31.96
46886;BME280;32622;48.202;11.326;2022-08-19T01:17:12;1011.58;;;19.71;32.25
46886;BME280;32622;48.202;11.326;2022-08-19T01:19:21;1011.59;;;19.22;32.57
46886;BME280;32622;48.202;11.326;2022-08-19T01:21:31;1011.61;;;19.06;32.98
46886;BME280;32622;48.202;11.326;2022-08-19T01:23:37;1011.62;;;19.24;32.72
46886;BME280;32622;48.202;11.326;2022-08-19T01:25:45;1011.80;;;18.93;34.17
46886;BME280;32622;48.202;11.326;2022-08-19T01:27:51;1011.75;;;19.64;33.11
46886;BME280;32622;48.202;11.326;2022-08-19T01:29:56;1011.90;;;19.16;32.82
46886;BME280;32622;48.202;11.326;2022-08-19T01:32:01;1011.84;;;19.52;32.50
46886;BME280;32622;48.202;11.326;2022-08-19T01:34:06;1011.77;;;19.64;31.92
46886;BME280;32622;48.202;11.326;2022-08-19T01:36:14;1011.60;;;20.03;32.22
46886;BME280;32622;48.202;11.326;2022-08-19T01:38:23;1011.53;;;20.13;32.24
46886;BME280;32622;48.202;11.326;2022-08-19T01:40:30;1011.62;;;19.82;31.78
46886;BME280;32622;48.202;11.326;2022-08-19T01:42:34;1011.54;;;20.37;31.60
46886;BME280;32622;48.202;11.326;2022-08-19T01:44:40;1011.73;;;19.82;32.09
46886;BME280;32622;48.202;11.326;2022-08-19T01:46:44;1011.86;;;19.52;32.40
46886;BME280;32622;48.202;11.326;2022-08-19T01:48:48;1011.83;;;19.83;32.38
46886;BME280;32622;48.202;11.326;2022-08-19T01:50:53;1011.85;;;20.15;32.09
46886;BME280;32622;48.202;11.326;2022-08-19T01:52:59;1011.94;;;19.81;31.86
46886;BME280;32622;48.202;11.326;2022-08-19T01:55:10;1011.97;;;19.78;32.30
46886;BME280;32622;48.202;11.326;2022-08-19T01:57:16;1011.94;;;20.36;31.64
46886;BME280;32622;48.202;11.326;2022-08-19T01:59:23;1012.00;;;20.20;31.89
46886;BME280;32622;48.202;11.326;2022-08-19T02:01:31;1012.18;;;19.28;32.47
46886;BME280;32622;48.202;11.326;2022-08-19T02:03:37;1011.99;;;19.85;31.87
46886;BME280;32622;48.202;11.326;2022-08-19T02:05:42;1012.02;;;19.18;32.90
46886;BME280;32622;48.202;11.326;2022-08-19T02:07:48;1011.87;;;19.22;32.38
46886;BME280;32622;48.202;11.326;2022-08-19T02:09:55;1011.77;;;19.12;32.30
46886;BME280;32622;48.202;11.326;2022-08-19T02:12:10;1011.62;;;19.69;32.11
46886;BME280;32622;48.202;11.326;2022-08-19T02:14:17;1011.72;;;19.26;33.09
46886;BME280;32622;48.202;11.326;2022-08-19T02:16:24;1011.87;;;18.93;33.14
46886;BME280;32622;48.202;11.326;2022-08-19T02:18:29;1011.99;;;18.49;33.49
46886;BME280;32622;48.202;11.326;2022-08-19T02:20:34;1012.16;;;17.61;34.70
46886;BME280;32622;48.202;11.326;2022-08-19T02:22:39;1011.81;;;19.46;32.54
46886;BME280;32622;48.202;11.326;2022-08-19T02:24:43;1011.79;;;19.55;32.62
46886;BME280;32622;48.202;11.326;2022-08-19T02:26:46;1011.76;;;20.04;32.15
46886;BME280;32622;48.202;11.326;2022-08-19T02:28:52;1011.92;;;19.45;32.49
46886;BME280;32622;48.202;11.326;2022-08-19T02:30:57;1011.97;;;19.56;32.16
46886;BME280;32622;48.202;11.326;2022-08-19T02:33:00;1012.04;;;19.57;32.50
46886;BME280;32622;48.202;11.326;2022-08-19T02:35:04;1012.03;;;19.49;32.30
46886;BME280;32622;48.202;11.326;2022-08-19T02:37:09;1011.91;;;19.84;32.05
46886;BME280;32622;48.202;11.326;2022-08-19T02:39:14;1012.03;;;18.94;32.75
46886;BME280;32622;48.202;11.326;2022-08-19T02:41:21;1011.97;;;19.24;32.77
46886;BME280;32622;48.202;11.326;2022-08-19T02:43:26;1012.00;;;19.32;33.39
46886;BME280;32622;48.202;11.326;2022-08-19T02:45:33;1011.86;;;19.76;32.62
46886;BME280;32622;48.202;11.326;2022-08-19T02:47:38;1011.83;;;19.71;32.32
46886;BME280;32622;48.202;11.326;2022-08-19T02:49:44;1011.82;;;19.67;32.42
46886;BME280;32622;48.202;11.326;2022-08-19T02:51:48;1011.72;;;19.79;31.88
46886;BME280;32622;48.202;11.326;2022-08-19T02:53:53;1011.64;;;20.08;31.71
46886;BME280;32622;48.202;11.326;2022-08-19T02:56:05;1011.62;;;19.96;31.85
46886;BME280;32622;48.202;11.326;2022-08-19T02:58:08;1011.71;;;18.87;33.01
46886;BME280;32622;48.202;11.326;2022-08-19T03:00:13;1011.55;;;19.20;32.72
46886;BME280;32622;48.202;11.326;2022-08-19T03:02:17;1011.43;;;19.26;32.26
46886;BME280;32622;48.202;11.326;2022-08-19T03:04:21;1011.54;;;18.69;32.78
46886;BME280;32622;48.202;11.326;2022-08-19T03:06:25;1011.23;;;20.04;31.47
46886;BME280;32622;48.202;11.326;2022-08-19T03:08:30;1011.37;;;19.73;31.98
46886;BME280;32622;48.202;11.326;2022-08-19T03:10:42;1011.21;;;20.14;31.52
46886;BME280;32622;48.202;11.326;2022-08-19T03:12:46;1011.30;;;19.52;32.10
46886;BME280;32622;48.202;11.326;2022-08-19T03:14:50;1011.19;;;19.91;32.05
46886;BME280;32622;48.202;11.326;2022-08-19T03:16:54;1011.16;;;20.30;31.61
46886;BME280;32622;48.202;11.326;2022-08-19T03:18:58;1011.32;;;19.86;32.42
46886;BME280;32622;48.202;11.326;2022-08-19T03:21:05;1011.38;;;19.75;31.93
46886;BME280;32622;48.202;11.326;2022-08-19T03:25:13;1011.26;;;20.58;31.56
46886;BME280;32622;48.202;11.326;2022-08-19T03:27:17;1011.63;;;19.61;32.17
46886;BME280;32622;48.202;11.326;2022-08-19T03:29:20;1011.60;;;20.36;31.55
46886;BME280;32622;48.202;11.326;2022-08-19T03:31:26;1011.73;;;20.16;31.42
46886;BME280;32622;48.202;11.326;2022-08-19T03:33:32;1011.79;;;20.15;31.39
46886;BME280;32622;48.202;11.326;2022-08-19T03:35:36;1011.87;;;20.01;31.52
46886;BME280;32622;48.202;11.326;2022-08-19T03:37:40;1011.96;;;19.48;32.22
46886;BME280;32622;48.202;11.326;2022-08-19T03:39:46;1011.80;;;20.19;31.16
46886;BME280;32622;48.202;11.326;2022-08-19T03:41:50;1011.83;;;19.98;31.44
46886;BME280;32622;48.202;11.326;2022-08-19T03:43:55;1011.69;;;20.54;31.13
46886;BME280;32622;48.202;11.326;2022-08-19T03:46:06;1011.65;;;20.57;30.91
46886;BME280;32622;48.202;11.326;2022-08-19T03:48:11;1011.58;;;20.44;30.72
46886;BME280;32622;48.202;11.326;2022-08-19T03:50:14;1011.60;;;20.12;31.18
46886;BME280;32622;48.202;11.326;2022-08-19T03:52:19;1011.43;;;20.29;31.37
46886;BME280;32622;48.202;11.326;2022-08-19T03:54:24;1011.55;;;19.52;31.36
46886;BME280;32622;48.202;11.326;2022-08-19T03:56:29;1011.38;;;20.25;30.58
46886;BME280;32622;48.202;11.326;2022-08-19T03:58:34;1011.41;;;20.50;30.63
46886;BME280;32622;48.202;11.326;2022-08-19T04:00:37;1011.40;;;20.67;30.61
46886;BME280;32622;48.202;11.326;2022-08-19T04:02:41;1011.45;;;20.26;30.36
46886;BME280;32622;48.202;11.326;2022-08-19T04:04:45;1011.61;;;19.97;31.53
46886;BME280;32622;48.202;11.326;2022-08-19T04:06:53;1011.68;;;19.82;31.17
46886;BME280;32622;48.202;11.326;2022-08-19T04:08:58;1011.66;;;20.05;30.86
46886;BME280;32622;48.202;11.326;2022-08-19T04:11:07;1011.47;;;20.59;30.31
46886;BME280;32622;48.202;11.326;2022-08-19T04:13:12;1011.38;;;20.51;30.14
46886;BME280;32622;48.202;11.326;2022-08-19T04:15:16;1011.25;;;20.89;29.43
46886;BME280;32622;48.202;11.326;2022-08-19T04:17:28;1011.31;;;20.75;29.37
46886;BME280;32622;48.202;11.326;2022-08-19T04:19:34;1011.34;;;20.74;29.84
46886;BME280;32622;48.202;11.326;2022-08-19T04:21:39;1011.49;;;20.14;29.79
46886;BME280;32622;48.202;11.326;2022-08-19T04:23:42;1011.34;;;20.94;29.37
46886;BME280;32622;48.202;11.326;2022-08-19T04:25:46;1011.40;;;20.58;29.42
46886;BME280;32622;48.202;11.326;2022-08-19T04:27:49;1011.37;;;20.53;29.25
46886;BME280;32622;48.202;11.326;2022-08-19T04:29:53;1011.31;;;20.84;28.84
46886;BME280;32622;48.202;11.326;2022-08-19T04:31:59;1011.40;;;20.45;29.08
46886;BME280;32622;48.202;11.326;2022-08-19T04:34:05;1011.40;;;20.45;29.44
46886;BME280;32622;48.202;11.326;2022-08-19T04:36:16;1011.43;;;20.66;29.40
46886;BME280;32622;48.202;11.326;2022-08-19T04:38:21;1011.45;;;20.79;29.20
46886;BME280;32622;48.202;11.326;2022-08-19T04:40:26;1011.54;;;20.39;29.63
46886;BME280;32622;48.202;11.326;2022-08-19T04:42:30;1011.53;;;20.42;29.28
46886;BME280;32622;48.202;11.326;2022-08-19T04:44:35;1011.40;;;20.91;29.18
46886;BME280;32622;48.202;11.326;2022-08-19T04:46:39;1011.49;;;20.70;29.56
46886;BME280;32622;48.202;11.326;2022-08-19T04:48:43;1011.64;;;20.34;29.68
46886;BME280;32622;48.202;11.326;2022-08-19T04:50:47;1011.67;;;20.69;29.98
46886;BME280;32622;48.202;11.326;2022-08-19T04:52:52;1011.69;;;20.75;30.06
46886;BME280;32622;48.202;11.326;2022-08-19T04:54:55;1011.81;;;20.10;30.37
46886;BME280;32622;48.202;11.326;2022-08-19T04:57:00;1011.79;;;20.35;29.99
46886;BME280;32622;48.202;11.326;2022-08-19T04:59:03;1011.74;;;20.82;29.70
46886;BME280;32622;48.202;11.326;2022-08-19T05:01:07;1011.71;;;21.10;29.07
46886;BME280;32622;48.202;11.326;2022-08-19T05:03:12;1011.82;;;20.62;29.08
46886;BME280;32622;48.202;11.326;2022-08-19T05:05:16;1011.79;;;20.81;28.98
46886;BME280;32622;48.202;11.326;2022-08-19T05:07:20;1011.89;;;20.58;29.35
46886;BME280;32622;48.202;11.326;2022-08-19T05:09:25;1011.87;;;20.94;28.97
46886;BME280;32622;48.202;11.326;2022-08-19T05:11:30;1011.99;;;20.88;28.76
46886;BME280;32622;48.202;11.326;2022-08-19T05:13:35;1012.10;;;20.62;28.97
46886;BME280;32622;48.202;11.326;2022-08-19T05:15:40;1012.06;;;21.00;28.77
46886;BME280;32622;48.202;11.326;2022-08-19T05:17:44;1012.16;;;20.56;29.25
46886;BME280;32622;48.202;11.326;2022-08-19T05:19:48;1012.06;;;20.98;29.02
46886;BME280;32622;48.202;11.326;2022-08-19T05:21:52;1011.98;;;21.15;28.96
46886;BME280;32622;48.202;11.326;2022-08-19T05:23:57;1011.93;;;21.26;28.61
46886;BME280;32622;48.202;11.326;2022-08-19T05:26:01;1011.88;;;21.60;28.18
46886;BME280;32622;48.202;11.326;2022-08-19T05:28:05;1011.85;;;21.78;28.01
46886;BME280;32622;48.202;11.326;2022-08-19T05:30:10;1011.85;;;21.80;27.92
46886;BME280;32622;48.202;11.326;2022-08-19T05:32:14;1011.91;;;21.39;28.15
46886;BME280;32622;48.202;11.326;2022-08-19T05:34:20;1011.80;;;21.70;28.01
46886;BME280;32622;48.202;11.326;2022-08-19T05:36:25;1011.84;;;21.29;27.94
46886;BME280;32622;48.202;11.326;2022-08-19T05:38:30;1011.92;;;20.50;28.58
46886;BME280;32622;48.202;11.326;2022-08-19T05:40:34;1011.68;;;21.10;28.42
46886;BME280;32622;48.202;11.326;2022-08-19T05:42:39;1011.66;;;20.80;28.45
46886;BME280;32622;48.202;11.326;2022-08-19T05:44:44;1011.69;;;20.83;28.73
46886;BME280;32622;48.202;11.326;2022-08-19T05:46:49;1011.71;;;20.91;28.45
46886;BME280;32622;48.202;11.326;2022-08-19T05:48:59;1011.67;;;21.13;28.94
46886;BME280;32622;48.202;11.326;2022-08-19T05:51:06;1011.63;;;21.33;28.65
46886;BME280;32622;48.202;11.326;2022-08-19T05:53:09;1011.67;;;21.11;28.62
46886;BME280;32622;48.202;11.326;2022-08-19T05:55:13;1011.73;;;20.87;28.63
46886;BME280;32622;48.202;11.326;2022-08-19T05:57:16;1011.62;;;21.23;28.37
46886;BME280;32622;48.202;11.326;2022-08-19T05:59:20;1011.67;;;20.72;28.83
46886;BME280;32622;48.202;11.326;2022-08-19T06:01:25;1011.59;;;21.16;28.53
46886;BME280;32622;48.202;11.326;2022-08-19T06:03:28;1011.62;;;20.95;28.90
46886;BME280;32622;48.202;11.326;2022-08-19T06:05:33;1011.67;;;20.95;28.57
46886;BME280;32622;48.202;11.326;2022-08-19T06:07:38;1011.65;;;21.11;28.44
46886;BME280;32622;48.202;11.326;2022-08-19T06:09:44;1011.65;;;21.20;28.62
46886;BME280;32622;48.202;11.326;2022-08-19T06:11:50;1011.66;;;21.24;28.65
46886;BME280;32622;48.202;11.326;2022-08-19T06:13:55;1011.66;;;21.35;28.35
46886;BME280;32622;48.202;11.326;2022-08-19T06:15:59;1011.74;;;21.13;28.54
46886;BME280;32622;48.202;11.326;2022-08-19T06:18:03;1011.74;;;21.26;28.38
46886;BME280;32622;48.202;11.326;2022-08-19T06:20:10;1011.84;;;20.99;28.78
46886;BME280;32622;48.202;11.326;2022-08-19T06:22:16;1011.71;;;21.63;28.30
46886;BME280;32622;48.202;11.326;2022-08-19T06:24:23;1011.71;;;21.95;28.24
46886;BME280;32622;48.202;11.326;2022-08-19T06:26:28;1011.84;;;21.62;28.03
46886;BME280;32622;48.202;11.326;2022-08-19T06:28:32;1011.80;;;22.01;28.06
46886;BME280;32622;48.202;11.326;2022-08-19T06:30:36;1011.85;;;21.89;28.14
46886;BME280;32622;48.202;11.326;2022-08-19T06:32:40;1011.96;;;21.34;27.70
46886;BME280;32622;48.202;11.326;2022-08-19T06:34:45;1011.93;;;21.54;28.21
46886;BME280;32622;48.202;11.326;2022-08-19T06:36:51;1011.92;;;21.73;28.02
46886;BME280;32622;48.202;11.326;2022-08-19T06:38:55;1012.02;;;21.34;27.97
46886;BME280;32622;48.202;11.326;2022-08-19T06:41:01;1011.91;;;21.85;27.84
46886;BME280;32622;48.202;11.326;2022-08-19T06:43:05;1011.96;;;21.61;28.29
46886;BME280;32622;48.202;11.326;2022-08-19T06:45:11;1012.03;;;21.17;28.33
46886;BME280;32622;48.202;11.326;2022-08-19T06:47:17;1012.15;;;20.46;28.69
46886;BME280;32622;48.202;11.326;2022-08-19T06:49:23;1011.92;;;21.45;28.11
46886;BME280;32622;48.202;11.326;2022-08-19T06:51:27;1011.86;;;21.75;28.17
46886;BME280;32622;48.202;11.326;2022-08-19T06:53:30;1012.01;;;21.12;28.05
46886;BME280;32622;48.202;11.326;2022-08-19T06:55:34;1011.96;;;21.45;28.31
46886;BME280;32622;48.202;11.326;2022-08-19T06:57:38;1011.89;;;21.73;27.99
46886;BME280;32622;48.202;11.326;2022-08-19T06:59:41;1012.00;;;21.05;28.58
46886;BME280;32622;48.202;11.326;2022-08-19T07:01:48;1011.88;;;21.55;27.96
46886;BME280;32622;48.202;11.326;2022-08-19T07:03:51;1011.81;;;21.66;28.17
46886;BME280;32622;48.202;11.326;2022-08-19T07:05:54;1011.68;;;22.18;28.05
46886;BME280;32622;48.202;11.326;2022-08-19T07:07:57;1011.80;;;21.53;28.00
46886;BME280;32622;48.202;11.326;2022-08-19T07:10:03;1011.66;;;22.16;27.55
46886;BME280;32622;48.202;11.326;2022-08-19T07:12:10;1011.61;;;22.40;27.47
46886;BME280;32622;48.202;11.326;2022-08-19T07:14:17;1011.53;;;22.64;27.62
46886;BME280;32622;48.202;11.326;2022-08-19T07:16:22;1011.67;;;21.83;27.82
46886;BME280;32622;48.202;11.326;2022-08-19T07:18:27;1011.47;;;22.53;27.64
46886;BME280;32622;48.202;11.326;2022-08-19T07:20:30;1011.52;;;22.32;27.98
46886;BME280;32622;48.202;11.326;2022-08-19T07:22:34;1011.64;;;21.87;28.25
46886;BME280;32622;48.202;11.326;2022-08-19T07:24:42;1011.54;;;22.25;27.80
46886;BME280;32622;48.202;11.326;2022-08-19T07:26:46;1011.57;;;21.67;27.79
46886;BME280;32622;48.202;11.326;2022-08-19T07:28:51;1011.54;;;21.68;28.35
46886;BME280;32622;48.202;11.326;2022-08-19T07:30:54;1011.48;;;21.61;28.42
46886;BME280;32622;48.202;11.326;2022-08-19T07:32:57;1011.34;;;22.09;28.24
46886;BME280;32622;48.202;11.326;2022-08-19T07:35:01;1011.16;;;22.84;28.06
46886;BME280;32622;48.202;11.326;2022-08-19T07:37:05;1011.27;;;22.17;28.16
46886;BME280;32622;48.202;11.326;2022-08-19T07:39:12;1011.28;;;22.30;28.48
46886;BME280;32622;48.202;11.326;2022-08-19T07:41:22;1011.29;;;22.12;28.16
46886;BME280;32622;48.202;11.326;2022-08-19T07:43:26;1011.35;;;21.90;28.45
46886;BME280;32622;48.202;11.326;2022-08-19T07:45:32;1011.48;;;21.28;28.80
46886;BME280;32622;48.202;11.326;2022-08-19T07:47:41;1011.38;;;21.82;28.59
46886;BME280;32622;48.202;11.326;2022-08-19T07:49:46;1011.46;;;21.70;28.86
46886;BME280;32622;48.202;11.326;2022-08-19T07:51:52;1011.54;;;21.62;28.87
46886;BME280;32622;48.202;11.326;2022-08-19T07:53:56;1011.54;;;21.76;28.81
46886;BME280;32622;48.202;11.326;2022-08-19T07:56:01;1011.42;;;22.00;28.65
46886;BME280;32622;48.202;11.326;2022-08-19T07:58:06;1011.48;;;21.81;28.92
46886;BME280;32622;48.202;11.326;2022-08-19T08:00:14;1011.63;;;20.98;30.02
46886;BME280;32622;48.202;11.326;2022-08-19T08:02:18;1011.54;;;21.37;29.32
46886;BME280;32622;48.202;11.326;2022-08-19T08:04:24;1011.56;;;21.49;29.41
46886;BME280;32622;48.202;11.326;2022-08-19T08:06:29;1011.64;;;21.25;29.70
46886;BME280;32622;48.202;11.326;2022-08-19T08:08:34;1011.60;;;21.61;29.38
46886;BME280;32622;48.202;11.326;2022-08-19T08:10:40;1011.55;;;21.71;28.88
46886;BME280;32622;48.202;11.326;2022-08-19T08:12:44;1011.52;;;21.72;28.97
46886;BME280;32622;48.202;11.326;2022-08-19T08:14:53;1011.46;;;21.86;28.86
46886;BME280;32622;48.202;11.326;2022-08-19T08:16:58;1011.48;;;21.77;29.07
46886;BME280;32622;48.202;11.326;2022-08-19T08:19:04;1011.51;;;21.90;28.90
46886;BME280;32622;48.202;11.326;2022-08-19T08:21:10;1011.39;;;22.40;28.74
46886;BME280;32622;48.202;11.326;2022-08-19T08:23:15;1011.40;;;22.16;28.66
46886;BME280;32622;48.202;11.326;2022-08-19T08:25:20;1011.69;;;21.32;29.01
46886;BME280;32622;48.202;11.326;2022-08-19T08:27:24;1011.56;;;22.16;28.81
46886;BME280;32622;48.202;11.326;2022-08-19T08:29:30;1011.72;;;21.55;28.53
46886;BME280;32622;48.202;11.326;2022-08-19T08:31:34;1011.63;;;22.07;28.08
46886;BME280;32622;48.202;11.326;2022-08-19T08:33:38;1011.69;;;21.93;28.79
46886;BME280;32622;48.202;11.326;2022-08-19T08:35:41;1011.63;;;22.17;28.35
46886;BME280;32622;48.202;11.326;2022-08-19T08:37:45;1011.52;;;22.61;27.72
46886;BME280;32622;48.202;11.326;2022-08-19T08:39:48;1011.51;;;22.65;27.46
46886;BME280;32622;48.202;11.326;2022-08-19T08:41:55;1011.62;;;21.96;28.26
46886;BME280;32622;48.202;11.326;2022-08-19T08:43:59;1011.64;;;21.88;28.32
46886;BME280;32622;48.202;11.326;2022-08-19T08:46:09;1011.55;;;22.44;28.04
46886;BME280;32622;48.202;11.326;2022-08-19T08:48:18;1011.66;;;22.25;28.21
46886;BME280;32622;48.202;11.326;2022-08-19T08:50:25;1011.66;;;22.60;28.04
46886;BME280;32622;48.202;11.326;2022-08-19T08:52:34;1011.63;;;22.75;27.90
46886;BME280;32622;48.202;11.326;2022-08-19T08:54:41;1011.67;;;22.57;28.18
46886;BME280;32622;48.202;11.326;2022-08-19T08:56:46;1011.85;;;21.91;28.72
46886;BME280;32622;48.202;11.326;2022-08-19T08:59:04;1011.84;;;22.10;28.65
46886;BME280;32622;48.202;11.326;2022-08-19T09:01:10;1011.84;;;22.36;28.51
46886;BME280;32622;48.202;11.326;2022-08-19T09:03:18;1011.83;;;22.49;28.39
46886;BME280;32622;48.202;11.326;2022-08-19T09:05:24;1011.90;;;22.32;28.34
46886;BME280;32622;48.202;11.326;2022-08-19T09:07:39;1011.79;;;22.98;27.98
46886;BME280;32622;48.202;11.326;2022-08-19T09:09:49;1011.80;;;22.98;27.94
46886;BME280;32622;48.202;11.326;2022-08-19T09:11:59;1011.90;;;22.48;28.12
46886;BME280;32622;48.202;11.326;2022-08-19T09:14:15;1012.07;;;21.90;28.60
46886;BME280;32622;48.202;11.326;2022-08-19T09:16:23;1012.03;;;22.05;28.42
46886;BME280;32622;48.202;11.326;2022-08-19T09:18:39;1011.76;;;23.11;28.13
46886;BME280;32622;48.202;11.326;2022-08-19T09:20:46;1011.92;;;22.12;28.50
46886;BME280;32622;48.202;11.326;2022-08-19T09:22:49;1011.85;;;22.40;28.46
46886;BME280;32622;48.202;11.326;2022-08-19T09:24:54;1011.73;;;22.88;28.38
46886;BME280;32622;48.202;11.326;2022-08-19T09:26:58;1011.78;;;22.55;28.29
46886;BME280;32622;48.202;11.326;2022-08-19T09:29:03;1011.81;;;22.39;28.43
46886;BME280;32622;48.202;11.326;2022-08-19T09:31:07;1012.02;;;21.74;28.96
46886;BME280;32622;48.202;11.326;2022-08-19T09:33:11;1011.81;;;22.51;28.44
46886;BME280;32622;48.202;11.326;2022-08-19T09:35:17;1011.83;;;22.33;28.66
46886;BME280;32622;48.202;11.326;2022-08-19T09:37:21;1011.76;;;22.73;28.34
46886;BME280;32622;48.202;11.326;2022-08-19T09:39:26;1011.88;;;22.28;28.65
46886;BME280;32622;48.202;11.326;2022-08-19T09:41:30;1011.86;;;22.69;28.41
46886;BME280;32622;48.202;11.326;2022-08-19T09:43:34;1011.83;;;22.86;28.75
46886;BME280;32622;48.202;11.326;2022-08-19T09:45:37;1011.88;;;22.47;28.62
46886;BME280;32622;48.202;11.326;2022-08-19T09:47:40;1011.89;;;22.56;28.27
46886;BME280;32622;48.202;11.326;2022-08-19T09:49:43;1011.88;;;22.68;28.35
46886;BME280;32622;48.202;11.326;2022-08-19T09:51:49;1011.89;;;22.67;28.42
46886;BME280;32622;48.202;11.326;2022-08-19T09:53:53;1012.15;;;21.58;29.49
46886;BME280;32622;48.202;11.326;2022-08-19T09:55:57;1012.05;;;22.10;28.68
46886;BME280;32622;48.202;11.326;2022-08-19T09:58:02;1011.99;;;22.45;28.63
46886;BME280;32622;48.202;11.326;2022-08-19T10:00:07;1012.04;;;22.43;28.86
46886;BME280;32622;48.202;11.326;2022-08-19T10:02:11;1012.09;;;22.04;29.02
46886;BME280;32622;48.202;11.326;2022-08-19T10:04:15;1012.15;;;21.86;28.93
46886;BME280;32622;48.202;11.326;2022-08-19T10:06:20;1012.18;;;21.28;29.90
46886;BME280;32622;48.202;11.326;2022-08-19T10:08:28;1012.08;;;21.74;29.50
46886;BME280;32622;48.202;11.326;2022-08-19T10:10:37;1011.98;;;22.18;29.04
46886;BME280;32622;48.202;11.326;2022-08-19T10:12:42;1011.92;;;22.56;29.31
46886;BME280;32622;48.202;11.326;2022-08-19T10:14:49;1012.11;;;21.78;29.78
46886;BME280;32622;48.202;11.326;2022-08-19T10:16:54;1012.05;;;21.96;29.78
46886;BME280;32622;48.202;11.326;2022-08-19T10:18:57;1012.22;;;20.98;30.10
46886;BME280;32622;48.202;11.326;2022-08-19T10:21:10;1012.17;;;20.96;30.01
46886;BME280;32622;48.202;11.326;2022-08-19T10:23:14;1012.18;;;21.21;30.40
46886;BME280;32622;48.202;11.326;2022-08-19T10:25:17;1012.16;;;21.42;30.46
46886;BME280;32622;48.202;11.326;2022-08-19T10:27:21;1012.29;;;21.11;30.56
46886;BME280;32622;48.202;11.326;2022-08-19T10:29:24;1012.36;;;20.75;31.04
46886;BME280;32622;48.202;11.326;2022-08-19T10:31:29;1012.51;;;19.89;31.55
46886;BME280;32622;48.202;11.326;2022-08-19T10:33:39;1012.32;;;20.70;31.06
46886;BME280;32622;48.202;11.326;2022-08-19T10:35:42;1012.27;;;20.94;30.88
46886;BME280;32622;48.202;11.326;2022-08-19T10:37:45;1012.34;;;20.54;31.30
46886;BME280;32622;48.202;11.326;2022-08-19T10:39:50;1012.38;;;20.34;30.99
46886;BME280;32622;48.202;11.326;2022-08-19T10:41:54;1012.57;;;19.67;31.84
46886;BME280;32622;48.202;11.326;2022-08-19T10:44:01;1012.33;;;20.52;31.71
46886;BME280;32622;48.202;11.326;2022-08-19T10:46:11;1012.28;;;20.54;31.37
46886;BME280;32622;48.202;11.326;2022-08-19T10:48:14;1012.23;;;20.65;31.07
46886;BME280;32622;48.202;11.326;2022-08-19T10:50:18;1012.10;;;21.23;31.30
46886;BME280;32622;48.202;11.326;2022-08-19T10:52:21;1012.08;;;21.29;30.69
46886;BME280;32622;48.202;11.326;2022-08-19T10:54:25;1012.14;;;20.97;31.17
46886;BME280;32622;48.202;11.326;2022-08-19T10:56:32;1012.05;;;21.41;30.82
46886;BME280;32622;48.202;11.326;2022-08-19T10:58:36;1012.00;;;21.65;30.60
46886;BME280;32622;48.202;11.326;2022-08-19T11:00:51;1012.19;;;20.60;31.20
46886;BME280;32622;48.202;11.326;2022-08-19T11:02:56;1012.10;;;21.05;30.98
46886;BME280;32622;48.202;11.326;2022-08-19T11:04:59;1012.00;;;21.43;30.74
46886;BME280;32622;48.202;11.326;2022-08-19T11:07:04;1012.14;;;20.90;30.65